createdAt,value
2023-01-20T00:02:42.110Z,0.00
2023-01-20T00:07:44.328Z,0.00
2023-01-20T00:12:46.419Z,0.00
2023-01-20T00:17:48.576Z,0.00
2023-01-20T00:22:50.661Z,0.10
2023-01-20T00:27:55.781Z,0.10
2023-01-20T00:32:58.007Z,0.00
2023-01-20T00:38:00.110Z,0.00
2023-01-20T00:43:02.230Z,-0.10
2023-01-20T00:48:04.535Z,-0.10
2023-01-20T00:53:06.871Z,0.00
2023-01-20T00:58:09.364Z,0.00
2023-01-20T01:03:12.817Z,-0.10
2023-01-20T01:08:14.983Z,-0.10
2023-01-20T01:13:17.125Z,-0.10
2023-01-20T01:18:19.287Z,-0.10
2023-01-20T01:23:21.415Z,-0.20
2023-01-20T01:28:23.609Z,-0.20
2023-01-20T01:33:25.897Z,-0.20
2023-01-20T01:38:28.809Z,-0.20
2023-01-20T01:43:33.889Z,-0.20
2023-01-20T01:48:42.559Z,-0.30
2023-01-20T01:53:49.092Z,-0.30
2023-01-20T01:58:53.313Z,-0.30
2023-01-20T02:04:07.611Z,-0.30
2023-01-20T02:09:09.892Z,-0.30
2023-01-20T02:14:12.278Z,-0.30
2023-01-20T02:19:17.712Z,-0.30
2023-01-20T02:25:17.404Z,-0.30
2023-01-20T02:30:37.468Z,-0.10
2023-01-20T02:36:11.107Z,-0.10
2023-01-20T02:41:23.006Z,-0.20
2023-01-20T02:46:49.579Z,-0.20
2023-01-20T02:52:01.290Z,-0.30
2023-01-20T02:57:06.998Z,-0.30
2023-01-20T03:02:20.817Z,-0.30
2023-01-20T03:07:25.986Z,-0.40
2023-01-20T03:12:40.253Z,-0.30
2023-01-20T03:17:42.513Z,-0.30
2023-01-20T03:22:44.761Z,-0.30
2023-01-20T03:27:47.325Z,-0.30
2023-01-20T03:32:51.283Z,-0.40
2023-01-20T03:37:53.516Z,-0.40
2023-01-20T03:43:41.698Z,-0.50
2023-01-20T03:49:18.897Z,-0.50
2023-01-20T03:54:26.276Z,-0.50
2023-01-20T03:59:28.615Z,-0.50
2023-01-20T04:04:36.595Z,-0.60
2023-01-20T04:09:44.507Z,-0.60
2023-01-20T04:14:46.629Z,-0.60
2023-01-20T04:19:48.994Z,-0.60
2023-01-20T04:24:55.668Z,-0.50
2023-01-20T04:29:57.732Z,-0.60
2023-01-20T04:34:59.815Z,-0.50
2023-01-20T04:40:01.918Z,-0.60
2023-01-20T04:45:05.166Z,-0.60
2023-01-20T04:50:08.589Z,-0.60
2023-01-20T04:55:11.489Z,-0.60
2023-01-20T05:00:19.888Z,-0.60
2023-01-20T05:05:22.031Z,-0.60
2023-01-20T05:10:24.344Z,-0.60
2023-01-20T05:15:26.876Z,-0.50
2023-01-20T05:20:29.620Z,-0.50
2023-01-20T05:25:31.733Z,-0.50
2023-01-20T05:30:33.921Z,-0.40
2023-01-20T05:35:38.705Z,-0.40
2023-01-20T05:40:40.783Z,-0.40
2023-01-20T05:45:43.116Z,-0.40
2023-01-20T05:50:45.264Z,-0.40
2023-01-20T05:55:47.445Z,-0.40
2023-01-20T06:00:49.492Z,-0.40
2023-01-20T06:05:51.564Z,-0.40
2023-01-20T06:10:54.000Z,-0.30
2023-01-20T06:15:56.808Z,-0.30
2023-01-20T06:20:59.266Z,-0.30
2023-01-20T06:26:07.042Z,-0.30
2023-01-20T06:31:15.190Z,-0.20
2023-01-20T06:36:17.798Z,-0.20
2023-01-20T06:41:20.812Z,-0.10
2023-01-20T06:46:23.054Z,-0.20
2023-01-20T06:51:25.232Z,-0.20
2023-01-20T06:56:27.655Z,-0.10
2023-01-20T07:01:31.260Z,-0.20
2023-01-20T07:06:40.777Z,-0.10
2023-01-20T07:11:42.944Z,-0.20
2023-01-20T07:16:46.044Z,-0.20
2023-01-20T07:21:48.206Z,-0.10
2023-01-20T07:26:53.803Z,-0.20
2023-01-20T07:31:56.223Z,-0.20
2023-01-20T07:37:01.352Z,-0.10
2023-01-20T07:42:03.558Z,-0.10
2023-01-20T07:47:05.657Z,-0.10
2023-01-20T07:52:07.773Z,-0.10
2023-01-20T07:57:09.930Z,-0.10
2023-01-20T08:02:12.068Z,-0.20
2023-01-20T08:07:14.215Z,-0.20
2023-01-20T08:12:16.295Z,-0.10
2023-01-20T08:17:18.401Z,-0.10
2023-01-20T08:22:20.553Z,-0.10
2023-01-20T08:27:22.744Z,-0.10
2023-01-20T08:32:24.797Z,0.00
2023-01-20T08:37:26.944Z,0.10
2023-01-20T08:42:29.080Z,0.20
2023-01-20T08:47:31.293Z,0.20
2023-01-20T08:52:34.155Z,0.20
2023-01-20T08:57:36.878Z,0.30
2023-01-20T09:02:39.040Z,0.30
2023-01-20T09:07:41.135Z,0.30
2023-01-20T09:12:43.240Z,0.40
2023-01-20T09:17:45.309Z,0.50
2023-01-20T09:22:47.552Z,0.50
2023-01-20T09:27:49.654Z,0.60
2023-01-20T09:32:53.900Z,0.60
2023-01-20T09:38:14.424Z,0.70
2023-01-20T09:43:56.880Z,0.80
2023-01-20T09:49:25.438Z,0.80
2023-01-20T09:54:34.345Z,0.90
2023-01-20T09:59:49.674Z,1.00
2023-01-20T10:05:08.532Z,1.20
2023-01-20T10:10:19.245Z,1.40
2023-01-20T10:15:43.059Z,1.50
2023-01-20T10:21:09.604Z,1.60
2023-01-20T10:26:11.654Z,1.70
2023-01-20T10:31:28.521Z,1.80
2023-01-20T10:36:34.904Z,2.00
2023-01-20T10:42:20.342Z,2.10
2023-01-20T10:47:44.130Z,2.20
2023-01-20T10:53:17.246Z,2.30
2023-01-20T10:58:37.869Z,2.60
2023-01-20T11:03:42.615Z,3.00
2023-01-20T11:08:44.742Z,3.40
2023-01-20T11:13:47.265Z,3.60
2023-01-20T11:19:04.348Z,3.90
2023-01-20T11:24:30.809Z,4.30
2023-01-20T11:29:38.620Z,4.60
2023-01-20T11:34:49.743Z,4.90
2023-01-20T11:40:26.333Z,5.10
2023-01-20T11:45:34.803Z,5.30
2023-01-20T11:50:54.540Z,5.50
2023-01-20T11:55:58.295Z,5.60
2023-01-20T12:01:08.399Z,5.70
2023-01-20T12:06:29.030Z,5.80
2023-01-20T12:11:36.202Z,5.80
2023-01-20T12:16:42.928Z,5.90
2023-01-20T12:21:53.612Z,5.90
2023-01-20T12:26:57.321Z,5.80
2023-01-20T12:32:01.058Z,5.70
2023-01-20T12:37:18.464Z,5.70
2023-01-20T12:42:47.841Z,5.80
2023-01-20T12:48:06.202Z,5.90
2023-01-20T12:53:31.055Z,6.10
2023-01-20T12:58:49.973Z,6.10
2023-01-20T13:04:05.048Z,6.20
2023-01-20T13:09:24.011Z,6.20
2023-01-20T13:14:41.320Z,6.20
2023-01-20T13:19:49.586Z,6.20
2023-01-20T13:24:58.250Z,6.20
2023-01-20T13:30:04.451Z,6.20
2023-01-20T13:35:25.607Z,6.30
2023-01-20T13:40:37.203Z,6.30
2023-01-20T13:45:39.406Z,6.40
2023-01-20T13:50:46.770Z,6.50
2023-01-20T13:55:48.939Z,6.60
2023-01-20T14:01:00.137Z,6.60
2023-01-20T14:06:07.512Z,6.60
2023-01-20T14:11:24.165Z,6.70
2023-01-20T14:16:30.884Z,6.90
2023-01-20T14:21:41.270Z,6.80
2023-01-20T14:26:44.444Z,6.90
2023-01-20T14:31:46.923Z,6.90
2023-01-20T14:36:49.402Z,7.00
2023-01-20T14:41:52.658Z,6.90
2023-01-20T14:46:58.530Z,7.10
2023-01-20T14:52:01.968Z,7.20
2023-01-20T14:57:21.320Z,7.20
2023-01-20T15:02:28.351Z,7.00
2023-01-20T15:07:30.824Z,7.00
2023-01-20T15:12:52.996Z,6.90
2023-01-20T15:18:21.964Z,6.80
2023-01-20T15:23:33.181Z,6.80
2023-01-20T15:28:41.475Z,6.80
2023-01-20T15:33:44.657Z,6.70
2023-01-20T15:38:46.799Z,6.70
2023-01-20T15:43:52.448Z,6.60
2023-01-20T15:48:54.549Z,6.50
2023-01-20T15:53:56.658Z,6.50
2023-01-20T15:58:58.856Z,6.30
2023-01-20T16:04:00.962Z,6.20
2023-01-20T16:09:13.928Z,6.00
2023-01-20T16:14:16.102Z,5.80
2023-01-20T16:19:18.215Z,5.60
2023-01-20T16:24:20.297Z,5.50
2023-01-20T16:29:22.415Z,5.30
2023-01-20T16:34:24.689Z,5.10
2023-01-20T16:39:27.043Z,5.00
2023-01-20T16:44:29.659Z,5.00
2023-01-20T16:49:31.757Z,4.80
2023-01-20T16:54:33.841Z,4.60
2023-01-20T16:59:36.086Z,4.50
2023-01-20T17:04:38.963Z,4.30
2023-01-20T17:09:43.558Z,4.20
2023-01-20T17:14:45.633Z,4.00
2023-01-20T17:19:47.812Z,4.00
2023-01-20T17:24:49.876Z,3.90
2023-01-20T17:29:51.928Z,3.90
2023-01-20T17:34:54.038Z,3.90
2023-01-20T17:39:56.116Z,3.80
2023-01-20T17:45:01.969Z,3.80
2023-01-20T17:50:04.897Z,3.70
2023-01-20T17:55:07.511Z,3.60
2023-01-20T18:00:10.509Z,3.50
2023-01-20T18:05:12.704Z,3.40
2023-01-20T18:10:17.346Z,3.40
2023-01-20T18:15:21.314Z,3.20
2023-01-20T18:20:23.858Z,3.20
2023-01-20T18:25:25.924Z,3.10
2023-01-20T18:30:28.014Z,3.10
2023-01-20T18:35:30.866Z,3.00
2023-01-20T18:40:33.161Z,2.90
2023-01-20T18:45:35.304Z,2.90
2023-01-20T18:50:37.611Z,2.80
2023-01-20T18:55:39.912Z,2.70
2023-01-20T19:00:42.217Z,2.60
2023-01-20T19:05:44.395Z,2.60
2023-01-20T19:10:46.573Z,2.60
2023-01-20T19:15:48.642Z,2.60
2023-01-20T19:20:51.142Z,2.60
2023-01-20T19:26:09.998Z,2.50
2023-01-20T19:31:18.424Z,2.50
2023-01-20T19:36:20.774Z,2.50
2023-01-20T19:41:27.794Z,2.50
2023-01-20T19:46:32.443Z,2.50
2023-01-20T19:51:34.730Z,2.50
2023-01-20T19:56:37.135Z,2.30
2023-01-20T20:01:39.540Z,2.20
2023-01-20T20:06:46.273Z,2.10
2023-01-20T20:11:50.288Z,2.00
2023-01-20T20:16:52.570Z,1.90
2023-01-20T20:21:57.633Z,2.00
2023-01-20T20:26:59.912Z,2.00
2023-01-20T20:32:02.213Z,1.90
2023-01-20T20:37:04.315Z,1.80
2023-01-20T20:42:06.421Z,1.70
2023-01-20T20:47:08.697Z,1.60
2023-01-20T20:52:10.896Z,1.60
2023-01-20T20:57:13.106Z,1.50
2023-01-20T21:02:15.252Z,1.40
2023-01-20T21:07:19.333Z,1.30
2023-01-20T21:12:21.602Z,1.30
2023-01-20T21:17:23.670Z,1.20
2023-01-20T21:22:26.087Z,1.10
2023-01-20T21:27:28.239Z,1.00
2023-01-20T21:32:30.876Z,1.00
2023-01-20T21:37:33.101Z,1.00
2023-01-20T21:42:35.223Z,0.90
2023-01-20T21:47:37.383Z,0.90
2023-01-20T21:52:42.361Z,0.70
2023-01-20T21:57:50.166Z,0.60
2023-01-20T22:02:53.188Z,0.50
2023-01-20T22:07:55.265Z,0.50
2023-01-20T22:12:57.417Z,0.40
2023-01-20T22:17:59.477Z,0.40
2023-01-20T22:23:03.015Z,0.40
2023-01-20T22:28:05.322Z,0.40
2023-01-20T22:33:07.541Z,0.40
2023-01-20T22:38:10.942Z,0.40
2023-01-20T22:43:13.051Z,0.30
2023-01-20T22:48:15.222Z,0.30
2023-01-20T22:53:17.917Z,0.30
2023-01-20T22:58:20.196Z,0.30
2023-01-20T23:03:22.732Z,0.20
2023-01-20T23:08:28.918Z,0.30
2023-01-20T23:13:31.130Z,0.30
2023-01-20T23:18:33.416Z,0.30
2023-01-20T23:23:35.611Z,0.30
2023-01-20T23:28:37.855Z,0.20
2023-01-20T23:33:43.338Z,0.10
2023-01-20T23:38:45.990Z,0.20
2023-01-20T23:43:48.138Z,0.20
2023-01-20T23:48:50.375Z,0.20
2023-01-20T23:53:52.543Z,0.20
2023-01-20T23:58:54.901Z,0.20
